createdAt,value
2023-01-28T00:00:48.439Z,-1.31
2023-01-28T00:03:33.720Z,-1.39
2023-01-28T00:06:21.447Z,-1.23
2023-01-28T00:09:08.410Z,-1.10
2023-01-28T00:11:54.559Z,-1.54
2023-01-28T00:14:40.923Z,-1.38
2023-01-28T00:17:28.428Z,-1.28
2023-01-28T00:20:13.566Z,-1.36
2023-01-28T00:22:58.444Z,-1.29
2023-01-28T00:25:48.144Z,-1.17
2023-01-28T00:28:35.737Z,-1.12
2023-01-28T00:31:23.426Z,-1.20
2023-01-28T00:34:09.829Z,-1.18
2023-01-28T00:36:55.098Z,-1.30
2023-01-28T00:39:41.143Z,-0.97
2023-01-28T00:42:28.660Z,-0.81
2023-01-28T00:45:13.965Z,-0.76
2023-01-28T00:47:59.093Z,-1.07
2023-01-28T00:50:44.044Z,-1.16
2023-01-28T00:53:28.871Z,-0.93
2023-01-28T00:56:13.973Z,-1.07
2023-01-28T00:58:58.820Z,-1.15
2023-01-28T01:01:43.853Z,-0.90
2023-01-28T01:04:28.641Z,-1.01
2023-01-28T01:07:13.688Z,-0.94
2023-01-28T01:09:58.631Z,-0.84
2023-01-28T01:12:43.523Z,-0.85
2023-01-28T01:15:28.628Z,-0.60
2023-01-28T01:18:16.722Z,-0.83
2023-01-28T01:21:01.966Z,-1.09
2023-01-28T01:23:48.011Z,-0.97
2023-01-28T01:26:33.234Z,-0.87
2023-01-28T01:29:20.454Z,-0.71
2023-01-28T01:32:05.607Z,-0.39
2023-01-28T01:34:50.600Z,-1.01
2023-01-28T01:37:39.865Z,-0.73
2023-01-28T01:40:27.296Z,-0.66
2023-01-28T01:43:14.720Z,-0.20
2023-01-28T01:46:02.304Z,-0.86
2023-01-28T01:48:47.345Z,-0.89
2023-01-28T01:51:32.360Z,-0.93
2023-01-28T01:54:17.344Z,-0.99
2023-01-28T01:57:02.099Z,-0.86
2023-01-28T01:59:48.455Z,-0.59
2023-01-28T02:02:33.705Z,-0.74
2023-01-28T02:05:18.744Z,-0.88
2023-01-28T02:08:03.987Z,-0.92
2023-01-28T02:10:51.279Z,-0.98
2023-01-28T02:13:38.645Z,-0.69
2023-01-28T02:16:26.059Z,-1.03
2023-01-28T02:19:13.503Z,-0.60
2023-01-28T02:21:58.732Z,-0.75
2023-01-28T02:24:43.649Z,-0.68
2023-01-28T02:27:28.603Z,-0.74
2023-01-28T02:30:15.875Z,-0.75
2023-01-28T02:33:00.911Z,-0.83
2023-01-28T02:35:47.091Z,-1.00
2023-01-28T02:38:32.188Z,-1.26
2023-01-28T02:41:17.076Z,-1.32
2023-01-28T02:44:01.955Z,-0.99
2023-01-28T02:46:46.873Z,-0.79
2023-01-28T02:52:31.096Z,-0.86
2023-01-28T02:55:16.369Z,-1.05
2023-01-28T02:58:01.427Z,-0.86
2023-01-28T03:00:55.190Z,-1.15
2023-01-28T03:03:40.328Z,-1.28
2023-01-28T03:06:25.216Z,-1.07
2023-01-28T03:09:10.085Z,-0.80
2023-01-28T03:11:55.075Z,-0.65
2023-01-28T03:14:39.967Z,-0.98
2023-01-28T03:17:26.582Z,-0.85
2023-01-28T03:20:13.947Z,-0.79
2023-01-28T03:22:58.900Z,-0.88
2023-01-28T03:25:43.883Z,-0.83
2023-01-28T03:28:28.751Z,-0.53
2023-01-28T03:31:13.698Z,-0.86
2023-01-28T03:34:00.844Z,-0.89
2023-01-28T03:36:45.916Z,-0.63
2023-01-28T03:39:31.032Z,-1.00
2023-01-28T03:42:15.945Z,-1.24
2023-01-28T03:45:01.536Z,-1.07
2023-01-28T03:47:46.436Z,-1.06
2023-01-28T03:50:38.989Z,-1.08
2023-01-28T03:53:26.440Z,-1.08
2023-01-28T03:56:11.555Z,-1.18
2023-01-28T03:58:56.777Z,-0.99
2023-01-28T04:01:41.979Z,-0.95
2023-01-28T04:04:26.929Z,-1.40
2023-01-28T04:07:11.922Z,-1.40
2023-01-28T04:09:59.235Z,-1.48
2023-01-28T04:12:44.217Z,-1.04
2023-01-28T04:15:29.216Z,-1.27
2023-01-28T04:18:14.150Z,-1.30
2023-01-28T04:20:58.996Z,-1.13
2023-01-28T04:23:44.007Z,-1.28
2023-01-28T04:26:28.932Z,-1.54
2023-01-28T04:29:13.888Z,-1.45
2023-01-28T04:31:58.762Z,-1.19
2023-01-28T04:34:43.625Z,-1.08
2023-01-28T04:37:28.538Z,-1.16
2023-01-28T04:40:13.489Z,-1.50
2023-01-28T04:42:58.284Z,-1.43
2023-01-28T04:45:43.239Z,-1.38
2023-01-28T04:48:28.293Z,-1.26
2023-01-28T04:51:13.150Z,-1.41
2023-01-28T04:53:58.071Z,-1.20
2023-01-28T04:56:42.952Z,-1.41
2023-01-28T04:59:32.236Z,-0.95
2023-01-28T05:02:17.501Z,-1.42
2023-01-28T05:05:02.840Z,-1.39
2023-01-28T05:07:47.862Z,-1.43
2023-01-28T05:10:32.673Z,-1.45
2023-01-28T05:13:17.688Z,-1.27
2023-01-28T05:16:02.448Z,-1.02
2023-01-28T05:18:48.668Z,-1.15
2023-01-28T05:21:33.929Z,-0.83
2023-01-28T05:24:18.792Z,-1.00
2023-01-28T05:27:03.759Z,-1.22
2023-01-28T05:29:51.139Z,-1.04
2023-01-28T05:32:36.427Z,-1.04
2023-01-28T05:35:21.384Z,-0.93
2023-01-28T05:38:06.309Z,-1.05
2023-01-28T05:40:51.297Z,-1.10
2023-01-28T05:43:38.576Z,-0.94
2023-01-28T05:46:31.211Z,-0.86
2023-01-28T05:49:16.442Z,-0.93
2023-01-28T05:52:01.383Z,-1.06
2023-01-28T05:54:46.474Z,-0.88
2023-01-28T05:57:31.456Z,-1.15
2023-01-28T06:00:16.882Z,-1.37
2023-01-28T06:03:09.787Z,-1.44
2023-01-28T06:05:54.915Z,-1.09
2023-01-28T06:08:42.622Z,-1.00
2023-01-28T06:11:27.862Z,-0.99
2023-01-28T06:14:12.839Z,-0.99
2023-01-28T06:16:57.701Z,-1.18
2023-01-28T06:19:42.667Z,-1.00
2023-01-28T06:22:28.898Z,-0.89
2023-01-28T06:25:14.270Z,-1.15
2023-01-28T06:27:59.159Z,-1.44
2023-01-28T06:30:44.129Z,-1.40
2023-01-28T06:33:29.051Z,-1.39
2023-01-28T06:36:13.895Z,-1.30
2023-01-28T06:38:58.870Z,-1.61
2023-01-28T06:41:44.966Z,-1.25
2023-01-28T06:44:32.102Z,-1.16
2023-01-28T06:47:17.356Z,-1.24
2023-01-28T06:50:02.145Z,-0.86
2023-01-28T06:52:47.140Z,-1.33
2023-01-28T06:55:31.957Z,-1.39
2023-01-28T06:58:18.152Z,-1.20
2023-01-28T07:01:03.441Z,-1.40
2023-01-28T07:03:48.249Z,-1.19
2023-01-28T07:06:33.235Z,-1.43
2023-01-28T07:09:18.116Z,-1.34
2023-01-28T07:12:05.959Z,-1.23
2023-01-28T07:14:51.320Z,-1.56
2023-01-28T07:17:36.310Z,-1.33
2023-01-28T07:20:21.139Z,-1.22
2023-01-28T07:23:05.926Z,-1.36
2023-01-28T07:25:50.792Z,-1.28
2023-01-28T07:28:35.689Z,-1.30
2023-01-28T07:31:20.855Z,-1.20
2023-01-28T07:34:06.030Z,-1.11
2023-01-28T07:36:50.929Z,-1.17
2023-01-28T07:39:35.894Z,-1.17
2023-01-28T07:42:20.744Z,-1.16
2023-01-28T07:45:05.626Z,-0.90
2023-01-28T07:47:52.755Z,-1.13
2023-01-28T07:50:37.919Z,-1.00
2023-01-28T07:53:22.981Z,-1.43
2023-01-28T07:56:07.893Z,-1.01
2023-01-28T07:58:57.175Z,-0.50
2023-01-28T08:01:42.423Z,-0.76
2023-01-28T08:04:27.211Z,-0.71
2023-01-28T08:07:12.601Z,-0.83
2023-01-28T08:09:57.300Z,-0.85
2023-01-28T08:12:42.260Z,-0.57
2023-01-28T08:15:27.231Z,-0.28
2023-01-28T08:18:14.582Z,-0.29
2023-01-28T08:20:59.711Z,-0.30
2023-01-28T08:23:44.624Z,0.03
2023-01-28T08:26:33.736Z,0.08
2023-01-28T08:29:19.018Z,0.19
2023-01-28T08:32:04.015Z,0.28
2023-01-28T08:34:49.557Z,0.59
2023-01-28T08:37:34.366Z,0.09
2023-01-28T08:40:19.345Z,0.22
2023-01-28T08:43:04.102Z,0.51
2023-01-28T08:45:50.277Z,0.41
2023-01-28T08:48:35.551Z,0.21
2023-01-28T08:51:20.316Z,0.39
2023-01-28T08:54:08.187Z,0.27
2023-01-28T08:56:56.602Z,0.58
2023-01-28T08:59:45.129Z,0.44
2023-01-28T09:02:32.166Z,0.63
2023-01-28T09:05:17.239Z,1.08
2023-01-28T09:08:04.367Z,1.27
2023-01-28T09:10:49.499Z,1.02
2023-01-28T09:13:34.540Z,1.11
2023-01-28T09:16:20.622Z,1.05
2023-01-28T09:19:08.202Z,1.10
2023-01-28T09:21:53.247Z,1.08
2023-01-28T09:24:39.983Z,0.73
2023-01-28T09:27:26.413Z,1.61
2023-01-28T09:30:13.604Z,1.07
2023-01-28T09:32:59.083Z,0.78
2023-01-28T09:35:44.042Z,0.40
2023-01-28T09:38:30.163Z,0.99
2023-01-28T09:41:19.686Z,0.79
2023-01-28T09:44:08.606Z,0.72
2023-01-28T09:46:54.001Z,0.80
2023-01-28T09:49:39.239Z,1.17
2023-01-28T09:52:25.310Z,1.16
2023-01-28T09:55:10.459Z,0.66
2023-01-28T09:57:55.333Z,0.54
2023-01-28T10:00:40.345Z,0.66
2023-01-28T10:03:25.113Z,0.56
2023-01-28T10:06:10.117Z,0.77
2023-01-28T10:08:56.874Z,1.04
2023-01-28T10:11:42.070Z,1.17
2023-01-28T10:14:26.903Z,0.58
2023-01-28T10:17:13.138Z,1.18
2023-01-28T10:19:58.301Z,1.31
2023-01-28T10:22:43.263Z,1.45
2023-01-28T10:25:30.574Z,1.98
2023-01-28T10:28:15.484Z,2.29
2023-01-28T10:31:01.602Z,2.90
2023-01-28T10:33:46.846Z,2.85
2023-01-28T10:36:35.919Z,2.41
2023-01-28T10:39:21.083Z,2.77
2023-01-28T10:42:06.040Z,2.64
2023-01-28T10:44:53.195Z,2.98
2023-01-28T10:47:40.143Z,3.01
2023-01-28T10:50:25.207Z,3.14
2023-01-28T10:53:10.047Z,3.12
2023-01-28T10:55:55.067Z,2.69
2023-01-28T10:58:39.956Z,3.25
2023-01-28T11:01:24.963Z,3.34
2023-01-28T11:04:10.248Z,3.23
2023-01-28T11:06:57.937Z,3.13
2023-01-28T11:09:43.074Z,3.62
2023-01-28T11:12:28.014Z,3.05
2023-01-28T11:15:13.441Z,3.01
2023-01-28T11:17:58.959Z,3.01
2023-01-28T11:20:44.029Z,3.07
2023-01-28T11:23:28.856Z,2.95
2023-01-28T11:26:13.726Z,2.77
2023-01-28T11:28:58.655Z,2.96
2023-01-28T11:31:43.809Z,2.77
2023-01-28T11:34:29.266Z,2.12
2023-01-28T11:37:14.020Z,2.21
2023-01-28T11:40:00.639Z,2.82
2023-01-28T11:42:45.979Z,2.59
2023-01-28T11:45:30.960Z,2.51
2023-01-28T11:48:15.821Z,3.02
2023-01-28T11:51:00.629Z,2.64
2023-01-28T11:53:45.384Z,2.65
2023-01-28T11:56:32.925Z,2.29
2023-01-28T11:59:17.883Z,2.60
2023-01-28T12:02:02.917Z,3.18
2023-01-28T12:04:50.102Z,3.62
2023-01-28T12:07:35.140Z,4.08
2023-01-28T12:10:20.097Z,3.81
2023-01-28T12:13:04.964Z,3.82
2023-01-28T12:15:49.850Z,3.87
2023-01-28T12:18:34.720Z,3.15
2023-01-28T12:21:19.682Z,3.38
2023-01-28T12:24:04.575Z,3.57
2023-01-28T12:26:52.392Z,2.51
2023-01-28T12:29:37.467Z,2.52
2023-01-28T12:32:24.280Z,3.15
2023-01-28T12:35:09.386Z,2.80
2023-01-28T12:37:54.167Z,3.08
2023-01-28T12:40:38.995Z,2.78
2023-01-28T12:43:27.016Z,3.32
2023-01-28T12:46:12.257Z,2.96
2023-01-28T12:48:57.249Z,3.11
2023-01-28T12:51:42.150Z,3.33
2023-01-28T12:54:27.045Z,3.53
2023-01-28T12:57:11.879Z,2.66
2023-01-28T12:59:56.659Z,3.23
2023-01-28T13:02:45.220Z,3.53
2023-01-28T13:05:30.362Z,3.41
2023-01-28T13:08:15.155Z,3.43
2023-01-28T13:11:00.044Z,3.93
2023-01-28T13:13:46.242Z,3.83
2023-01-28T13:16:37.361Z,3.92
2023-01-28T13:19:22.988Z,3.28
2023-01-28T13:22:07.877Z,3.04
2023-01-28T13:24:53.999Z,3.33
2023-01-28T13:27:39.155Z,2.74
2023-01-28T13:30:23.948Z,2.98
2023-01-28T13:33:10.108Z,3.86
2023-01-28T13:36:02.696Z,4.80
2023-01-28T13:38:49.091Z,5.19
2023-01-28T13:41:35.400Z,5.04
2023-01-28T13:44:21.789Z,4.68
2023-01-28T13:47:08.280Z,4.60
2023-01-28T13:49:55.472Z,4.38
2023-01-28T13:52:40.448Z,4.55
2023-01-28T13:55:41.656Z,4.00
2023-01-28T13:58:29.630Z,3.68
2023-01-28T14:01:15.869Z,3.95
2023-01-28T14:04:01.074Z,2.70
2023-01-28T14:06:46.091Z,3.51
2023-01-28T14:09:34.865Z,2.86
2023-01-28T14:12:20.188Z,2.52
2023-01-28T14:15:06.880Z,2.84
2023-01-28T14:17:54.809Z,3.41
2023-01-28T14:20:41.063Z,3.91
2023-01-28T14:23:26.280Z,3.98
2023-01-28T14:26:11.120Z,3.56
2023-01-28T14:28:56.000Z,3.83
2023-01-28T14:31:40.946Z,3.56
2023-01-28T14:34:26.279Z,3.25
2023-01-28T14:37:12.414Z,2.96
2023-01-28T14:40:00.132Z,3.02
2023-01-28T14:42:45.150Z,3.16
2023-01-28T14:45:29.964Z,3.21
2023-01-28T14:48:16.765Z,2.47
2023-01-28T14:51:01.748Z,3.01
2023-01-28T14:53:48.925Z,2.94
2023-01-28T14:56:35.668Z,2.88
2023-01-28T14:59:21.519Z,3.06
2023-01-28T15:02:06.366Z,2.31
2023-01-28T15:04:52.909Z,2.45
2023-01-28T15:07:39.823Z,2.44
2023-01-28T15:10:25.098Z,2.78
2023-01-28T15:13:11.120Z,2.29
2023-01-28T15:15:56.352Z,1.80
2023-01-28T15:18:41.299Z,2.50
2023-01-28T15:21:26.229Z,1.97
2023-01-28T15:24:11.230Z,1.96
2023-01-28T15:26:56.026Z,1.56
2023-01-28T15:29:42.169Z,1.88
2023-01-28T15:32:27.412Z,1.86
2023-01-28T15:35:12.236Z,1.13
2023-01-28T15:38:05.555Z,1.58
2023-01-28T15:40:55.106Z,1.63
2023-01-28T15:43:40.261Z,1.40
2023-01-28T15:46:27.726Z,1.13
2023-01-28T15:49:15.111Z,1.14
2023-01-28T15:52:00.178Z,0.47
2023-01-28T15:54:44.943Z,1.01
2023-01-28T15:57:33.669Z,0.90
2023-01-28T16:00:18.978Z,0.81
2023-01-28T16:03:06.346Z,0.79
2023-01-28T16:05:52.618Z,0.65
2023-01-28T16:08:39.012Z,0.48
2023-01-28T16:11:24.098Z,0.58
2023-01-28T16:14:08.956Z,0.90
2023-01-28T16:16:53.768Z,0.41
2023-01-28T16:19:38.683Z,0.74
2023-01-28T16:22:25.801Z,0.88
2023-01-28T16:25:10.914Z,0.59
2023-01-28T16:27:57.071Z,0.76
2023-01-28T16:30:42.390Z,0.87
2023-01-28T16:33:29.558Z,0.34
2023-01-28T16:36:14.578Z,0.48
2023-01-28T16:41:49.606Z,0.22
2023-01-28T16:44:34.432Z,0.22
2023-01-28T16:47:23.060Z,0.09
2023-01-28T16:50:10.518Z,0.11
2023-01-28T16:52:55.687Z,0.01
2023-01-28T16:55:40.601Z,0.45
2023-01-28T16:58:25.521Z,0.37
2023-01-28T17:01:10.343Z,0.09
2023-01-28T17:03:57.139Z,-0.11
2023-01-28T17:06:42.095Z,0.08
2023-01-28T17:09:27.252Z,0.10
2023-01-28T17:12:14.286Z,0.07
2023-01-28T17:14:59.272Z,0.09
2023-01-28T17:17:44.413Z,0.17
2023-01-28T17:20:33.031Z,0.19
2023-01-28T17:23:18.219Z,0.09
2023-01-28T17:26:05.722Z,-0.14
2023-01-28T17:28:50.881Z,0.16
2023-01-28T17:31:35.785Z,0.28
2023-01-28T17:34:28.416Z,0.31
2023-01-28T17:37:13.624Z,0.49
2023-01-28T17:39:58.445Z,0.38
2023-01-28T17:42:43.337Z,0.47
2023-01-28T17:45:30.533Z,0.16
2023-01-28T17:48:16.773Z,0.27
2023-01-28T17:51:02.119Z,0.29
2023-01-28T17:53:46.914Z,-0.02
2023-01-28T17:56:34.167Z,-0.10
2023-01-28T17:59:19.307Z,0.02
2023-01-28T18:02:04.148Z,-0.05
2023-01-28T18:04:49.074Z,-0.11
2023-01-28T18:07:36.825Z,0.12
2023-01-28T18:10:22.071Z,0.07
2023-01-28T18:13:07.246Z,0.15
2023-01-28T18:15:55.322Z,0.19
2023-01-28T18:18:46.459Z,0.19
2023-01-28T18:21:46.402Z,0.01
2023-01-28T18:24:35.306Z,0.03
2023-01-28T18:27:24.389Z,0.16
2023-01-28T18:30:09.717Z,0.43
2023-01-28T18:32:54.594Z,0.52
2023-01-28T18:35:39.384Z,0.65
2023-01-28T18:38:24.357Z,0.35
2023-01-28T18:41:09.183Z,0.24
2023-01-28T18:43:54.160Z,0.61
2023-01-28T18:46:38.933Z,0.13
2023-01-28T18:49:23.853Z,0.52
2023-01-28T18:52:08.808Z,0.36
2023-01-28T18:54:53.650Z,-0.11
2023-01-28T18:57:39.759Z,0.04
2023-01-28T19:00:24.863Z,0.06
2023-01-28T19:03:09.934Z,0.11
2023-01-28T19:05:55.996Z,0.43
2023-01-28T19:08:41.182Z,0.02
2023-01-28T19:11:26.235Z,-0.04
2023-01-28T19:14:11.077Z,-0.10
2023-01-28T19:16:58.315Z,-0.21
2023-01-28T19:19:43.297Z,-0.26
2023-01-28T19:22:28.368Z,-0.01
2023-01-28T19:25:15.866Z,0.44
2023-01-28T19:28:01.182Z,0.21
2023-01-28T19:30:46.050Z,-0.06
2023-01-28T19:33:30.806Z,-0.29
2023-01-28T19:36:15.836Z,-0.10
2023-01-28T19:39:00.675Z,-0.10
2023-01-28T19:41:45.629Z,0.12
2023-01-28T19:44:32.507Z,-0.25
2023-01-28T19:47:17.735Z,-0.59
2023-01-28T19:50:02.628Z,-0.38
2023-01-28T19:52:47.455Z,-0.17
2023-01-28T19:55:32.333Z,-0.23
2023-01-28T19:58:17.258Z,0.02
2023-01-28T20:01:02.043Z,-0.30
2023-01-28T20:03:47.065Z,-0.11
2023-01-28T20:06:34.834Z,-0.42
2023-01-28T20:09:22.292Z,-0.14
2023-01-28T20:12:07.536Z,-0.19
2023-01-28T20:14:54.784Z,-0.08
2023-01-28T20:17:40.023Z,-0.08
2023-01-28T20:20:25.295Z,-0.23
2023-01-28T20:23:10.242Z,-0.25
2023-01-28T20:25:55.197Z,-0.35
2023-01-28T20:28:40.132Z,-0.14
2023-01-28T20:31:25.178Z,-0.12
2023-01-28T20:34:10.539Z,-0.39
2023-01-28T20:36:55.506Z,-0.16
2023-01-28T20:39:42.491Z,-0.14
2023-01-28T20:42:28.010Z,-0.42
2023-01-28T20:45:13.361Z,-0.17
2023-01-28T20:47:58.653Z,-0.26
2023-01-28T20:50:43.602Z,-0.37
2023-01-28T20:53:28.519Z,-0.32
2023-01-28T20:56:13.381Z,-0.33
2023-01-28T20:59:00.649Z,-0.31
2023-01-28T21:01:45.793Z,-0.23
2023-01-28T21:04:30.664Z,-0.47
2023-01-28T21:07:15.386Z,-0.11
2023-01-28T21:10:02.364Z,-0.06
2023-01-28T21:12:47.711Z,-0.34
2023-01-28T21:15:37.674Z,0.05
2023-01-28T21:18:23.013Z,0.01
2023-01-28T21:21:13.788Z,-0.01
2023-01-28T21:24:00.189Z,0.12
2023-01-28T21:26:45.263Z,-0.01
2023-01-28T21:29:30.198Z,-0.11
2023-01-28T21:32:15.073Z,-0.14
2023-01-28T21:35:02.447Z,-0.06
2023-01-28T21:37:49.807Z,-0.45
2023-01-28T21:40:34.879Z,-0.50
2023-01-28T21:43:19.780Z,-0.51
2023-01-28T21:46:06.930Z,-0.43
2023-01-28T21:48:51.861Z,-0.42
2023-01-28T21:51:36.855Z,-0.08
2023-01-28T21:54:21.794Z,-0.36
2023-01-28T21:57:06.734Z,-0.33
2023-01-28T21:59:51.604Z,-0.39
2023-01-28T22:02:36.516Z,-0.30
2023-01-28T22:05:21.353Z,-0.41
2023-01-28T22:08:06.156Z,-0.61
2023-01-28T22:10:51.061Z,-0.64
2023-01-28T22:13:35.940Z,-0.71
2023-01-28T22:16:21.066Z,-0.71
2023-01-28T22:19:15.904Z,-0.66
2023-01-28T22:22:01.072Z,-0.81
2023-01-28T22:24:46.124Z,-0.78
2023-01-28T22:27:31.159Z,-0.63
2023-01-28T22:30:16.412Z,-0.45
2023-01-28T22:33:01.598Z,-0.56
2023-01-28T22:35:46.487Z,-0.36
2023-01-28T22:38:33.160Z,-0.49
2023-01-28T22:41:18.283Z,-0.37
2023-01-28T22:44:04.411Z,-0.75
2023-01-28T22:46:49.700Z,-0.60
2023-01-28T22:49:34.625Z,-0.84
2023-01-28T22:52:19.503Z,-0.37
2023-01-28T22:55:04.467Z,-0.62
2023-01-28T22:57:49.386Z,-0.77
2023-01-28T23:00:36.558Z,-0.56
2023-01-28T23:03:21.620Z,-0.60
2023-01-28T23:06:06.492Z,-0.84
2023-01-28T23:08:51.471Z,-0.92
2023-01-28T23:11:36.410Z,-0.84
2023-01-28T23:14:28.030Z,-0.79
2023-01-28T23:17:13.293Z,-0.82
2023-01-28T23:19:58.189Z,-0.78
2023-01-28T23:22:45.496Z,-0.63
2023-01-28T23:25:30.526Z,-0.57
2023-01-28T23:28:15.523Z,-0.74
2023-01-28T23:31:00.326Z,-0.69
2023-01-28T23:33:47.991Z,-0.43
2023-01-28T23:36:33.155Z,-0.59
2023-01-28T23:39:20.371Z,-0.67
2023-01-28T23:42:05.535Z,-0.51
2023-01-28T23:44:52.777Z,-0.42
2023-01-28T23:47:37.870Z,-0.45
2023-01-28T23:50:22.725Z,-0.74
2023-01-28T23:53:07.538Z,-0.81
2023-01-28T23:55:52.454Z,-0.46
2023-01-28T23:58:44.843Z,-0.49
